createdAt,value
2022-12-17T00:01:10.566Z,92.50
2022-12-17T00:04:01.259Z,94.70
2022-12-17T00:06:51.587Z,92.90
2022-12-17T00:09:43.593Z,92.40
2022-12-17T00:12:39.431Z,98.10
2022-12-17T00:15:29.949Z,93.80
2022-12-17T00:18:26.632Z,86.60
2022-12-17T00:21:18.550Z,91.90
2022-12-17T00:24:09.143Z,95.70
2022-12-17T00:27:02.175Z,91.50
2022-12-17T00:29:54.601Z,98.70
2022-12-17T00:32:45.203Z,93.30
2022-12-17T00:35:55.112Z,94.90
2022-12-17T00:38:48.564Z,97.90
2022-12-17T00:41:38.315Z,89.00
2022-12-17T00:44:31.120Z,97.10
2022-12-17T00:47:21.197Z,89.60
2022-12-17T00:50:11.708Z,88.80
2022-12-17T00:53:01.767Z,90.40
2022-12-17T00:55:51.678Z,91.10
2022-12-17T00:58:41.602Z,89.50
2022-12-17T01:01:36.916Z,87.00
2022-12-17T01:04:27.772Z,94.00
2022-12-17T01:07:17.697Z,89.80
2022-12-17T01:10:07.542Z,85.40
2022-12-17T01:12:57.516Z,89.20
2022-12-17T01:15:47.748Z,94.80
2022-12-17T01:18:40.931Z,89.20
2022-12-17T01:21:30.952Z,86.90
2022-12-17T01:24:21.069Z,85.20
2022-12-17T01:27:10.975Z,84.00
2022-12-17T01:30:01.026Z,82.30
2022-12-17T01:32:51.215Z,78.70
2022-12-17T01:35:44.420Z,76.50
2022-12-17T01:38:38.250Z,76.70
2022-12-17T01:41:28.445Z,74.80
2022-12-17T01:44:18.616Z,68.10
2022-12-17T01:47:10.923Z,71.20
2022-12-17T01:50:00.947Z,66.20
2022-12-17T01:52:50.717Z,68.70
2022-12-17T01:55:58.444Z,68.90
2022-12-17T01:58:49.199Z,74.10
2022-12-17T02:01:39.920Z,68.00
2022-12-17T02:04:31.133Z,62.40
2022-12-17T02:07:40.478Z,60.60
2022-12-17T02:10:41.522Z,65.10
2022-12-17T02:13:37.186Z,56.70
2022-12-17T02:16:32.686Z,56.30
2022-12-17T02:19:36.761Z,59.20
2022-12-17T02:22:33.755Z,55.50
2022-12-17T02:25:30.490Z,54.70
2022-12-17T02:28:23.713Z,57.30
2022-12-17T02:31:14.042Z,58.10
2022-12-17T02:34:04.853Z,57.70
2022-12-17T02:36:56.523Z,62.50
2022-12-17T02:39:46.395Z,60.20
2022-12-17T02:42:39.403Z,66.20
2022-12-17T02:45:30.748Z,61.00
2022-12-17T02:48:22.816Z,58.50
2022-12-17T02:51:13.732Z,60.40
2022-12-17T02:54:09.381Z,56.20
2022-12-17T02:56:59.756Z,63.70
2022-12-17T02:59:49.925Z,65.60
2022-12-17T03:02:40.228Z,66.30
2022-12-17T03:05:46.403Z,69.30
2022-12-17T03:08:36.794Z,66.30
2022-12-17T03:11:26.602Z,65.70
2022-12-17T03:14:16.205Z,62.60
2022-12-17T03:17:06.553Z,63.30
2022-12-17T03:19:56.640Z,63.00
2022-12-17T03:22:46.527Z,62.60
2022-12-17T03:25:36.748Z,64.40
2022-12-17T03:28:30.981Z,66.90
2022-12-17T03:31:21.264Z,66.90
2022-12-17T03:34:11.022Z,73.20
2022-12-17T03:37:01.004Z,66.60
2022-12-17T03:39:50.810Z,64.80
2022-12-17T03:42:40.483Z,65.80
2022-12-17T03:45:33.010Z,65.80
2022-12-17T03:48:28.986Z,65.00
2022-12-17T03:51:19.203Z,68.00
2022-12-17T03:54:09.332Z,65.30
2022-12-17T03:57:02.178Z,68.50
2022-12-17T03:59:52.192Z,66.60
2022-12-17T04:02:42.231Z,64.80
2022-12-17T04:05:32.806Z,68.80
2022-12-17T04:08:25.143Z,70.90
2022-12-17T04:11:15.330Z,74.50
2022-12-17T04:14:05.342Z,71.40
2022-12-17T04:16:55.055Z,72.60
2022-12-17T04:19:44.928Z,71.10
2022-12-17T04:22:34.992Z,66.80
2022-12-17T04:26:01.468Z,68.00
2022-12-17T04:28:51.769Z,68.80
2022-12-17T04:31:43.899Z,73.30
2022-12-17T04:34:36.095Z,71.70
2022-12-17T04:37:25.874Z,74.50
2022-12-17T04:40:15.688Z,73.50
2022-12-17T04:43:13.842Z,76.60
2022-12-17T04:46:09.618Z,70.40
2022-12-17T04:49:04.738Z,71.20
2022-12-17T04:51:54.583Z,74.30
2022-12-17T04:54:44.471Z,75.20
2022-12-17T04:57:34.686Z,70.50
2022-12-17T05:00:40.649Z,70.40
2022-12-17T05:03:33.462Z,69.50
2022-12-17T05:06:24.186Z,71.50
2022-12-17T05:09:13.824Z,75.80
2022-12-17T05:12:03.636Z,68.00
2022-12-17T05:14:53.492Z,66.50
2022-12-17T05:17:43.209Z,73.50
2022-12-17T05:20:37.784Z,67.20
2022-12-17T05:23:27.738Z,64.60
2022-12-17T05:26:24.092Z,65.70
2022-12-17T05:29:16.834Z,60.70
2022-12-17T05:32:07.593Z,58.30
2022-12-17T05:34:59.714Z,56.80
2022-12-17T05:37:50.584Z,54.30
2022-12-17T05:40:40.928Z,52.20
2022-12-17T05:43:32.590Z,52.90
2022-12-17T05:46:22.755Z,51.70
2022-12-17T05:49:12.775Z,52.20
2022-12-17T05:52:02.690Z,50.60
2022-12-17T05:54:52.789Z,56.50
2022-12-17T05:57:43.218Z,57.50
2022-12-17T06:00:38.526Z,48.90
2022-12-17T06:03:29.311Z,47.40
2022-12-17T06:06:19.212Z,39.80
2022-12-17T06:09:09.306Z,49.50
2022-12-17T06:12:02.589Z,43.80
2022-12-17T06:14:53.508Z,51.20
2022-12-17T06:17:47.048Z,46.30
2022-12-17T06:20:37.545Z,53.30
2022-12-17T06:23:29.921Z,51.40
2022-12-17T06:26:19.669Z,50.60
2022-12-17T06:29:10.023Z,52.90
2022-12-17T06:31:59.856Z,52.10
2022-12-17T06:35:04.297Z,52.50
2022-12-17T06:37:54.170Z,47.90
2022-12-17T06:40:40.316Z,53.20
2022-12-17T06:43:30.190Z,49.50
2022-12-17T06:46:22.391Z,50.30
2022-12-17T06:49:14.754Z,47.60
2022-12-17T06:52:04.643Z,44.70
2022-12-17T06:54:54.461Z,47.90
2022-12-17T06:57:50.034Z,46.10
2022-12-17T07:00:40.302Z,46.70
2022-12-17T07:03:31.855Z,46.30
2022-12-17T07:06:21.956Z,50.30
2022-12-17T07:09:11.740Z,51.00
2022-12-17T07:12:01.439Z,51.00
2022-12-17T07:14:52.127Z,50.00
2022-12-17T07:17:42.079Z,51.10
2022-12-17T07:20:32.791Z,55.10
2022-12-17T07:23:22.696Z,57.10
2022-12-17T07:26:12.481Z,59.40
2022-12-17T07:29:02.471Z,53.40
2022-12-17T07:31:54.938Z,54.00
2022-12-17T07:34:45.048Z,51.00
2022-12-17T07:37:34.742Z,52.40
2022-12-17T07:40:25.765Z,51.90
2022-12-17T07:43:15.822Z,53.10
2022-12-17T07:46:05.787Z,58.80
2022-12-17T07:48:56.003Z,51.90
2022-12-17T07:51:48.325Z,53.90
2022-12-17T07:54:52.777Z,51.30
2022-12-17T07:57:42.819Z,69.10
2022-12-17T08:00:37.450Z,53.10
2022-12-17T08:03:27.391Z,56.50
2022-12-17T08:06:19.201Z,59.60
2022-12-17T08:09:08.987Z,95.30
2022-12-17T08:11:59.061Z,66.50
2022-12-17T08:14:49.392Z,52.00
2022-12-17T08:17:39.229Z,52.00
2022-12-17T08:20:30.705Z,43.80
2022-12-17T08:23:24.077Z,49.10
2022-12-17T08:26:13.655Z,45.60
2022-12-17T08:29:03.304Z,66.80
2022-12-17T08:31:53.050Z,49.40
2022-12-17T08:34:42.973Z,53.00
2022-12-17T08:37:33.015Z,61.90
2022-12-17T08:40:27.457Z,55.60
2022-12-17T08:43:33.156Z,44.80
2022-12-17T08:46:23.602Z,47.50
2022-12-17T08:49:13.800Z,47.40
2022-12-17T08:52:04.219Z,43.20
2022-12-17T08:54:53.940Z,54.40
2022-12-17T08:57:43.968Z,41.90
2022-12-17T09:00:35.346Z,47.00
2022-12-17T09:03:25.383Z,47.80
2022-12-17T09:06:11.399Z,51.50
2022-12-17T09:09:01.475Z,47.70
2022-12-17T09:11:51.437Z,51.60
2022-12-17T09:14:41.402Z,51.70
2022-12-17T09:17:31.024Z,74.10
2022-12-17T09:20:26.202Z,50.70
2022-12-17T09:23:30.256Z,41.80
2022-12-17T09:26:20.256Z,41.00
2022-12-17T09:29:10.037Z,40.40
2022-12-17T09:32:00.105Z,44.20
2022-12-17T09:34:52.807Z,132.30
2022-12-17T09:37:42.761Z,44.90
2022-12-17T09:40:39.432Z,111.40
2022-12-17T09:43:42.845Z,107.60
2022-12-17T09:46:41.308Z,123.10
2022-12-17T09:49:37.526Z,615.40
2022-12-17T09:52:38.659Z,540.20
2022-12-17T09:55:39.908Z,62.40
2022-12-17T09:58:39.632Z,93.70
2022-12-17T10:01:38.465Z,46.70
2022-12-17T10:04:34.940Z,64.20
2022-12-17T10:07:32.251Z,63.00
2022-12-17T10:10:32.919Z,43.40
2022-12-17T10:13:26.663Z,110.30
2022-12-17T10:20:25.301Z,36.70
2022-12-17T10:23:29.019Z,39.30
2022-12-17T10:26:26.842Z,37.70
2022-12-17T10:29:48.672Z,173.50
2022-12-17T10:39:45.682Z,54.20
2022-12-17T10:42:43.542Z,168.20
2022-12-17T10:45:48.582Z,31.40
2022-12-17T10:48:43.331Z,30.80
2022-12-17T10:51:56.517Z,39.40
2022-12-17T10:54:49.880Z,39.30
2022-12-17T10:57:49.440Z,32.70
2022-12-17T11:00:50.004Z,34.30
2022-12-17T11:04:07.416Z,46.50
2022-12-17T11:07:00.629Z,35.80
2022-12-17T11:10:03.729Z,47.10
2022-12-17T11:13:01.483Z,63.60
2022-12-17T11:15:56.961Z,53.70
2022-12-17T11:18:51.656Z,41.80
2022-12-17T11:22:09.371Z,41.90
2022-12-17T11:25:49.217Z,43.20
2022-12-17T11:29:09.031Z,38.60
2022-12-17T11:32:31.382Z,40.20
2022-12-17T11:36:14.885Z,36.10
2022-12-17T11:44:58.759Z,26.50
2022-12-17T11:47:59.738Z,33.00
2022-12-17T11:50:58.022Z,31.80
2022-12-17T11:54:02.870Z,32.10
2022-12-17T11:56:56.341Z,38.10
2022-12-17T11:59:55.081Z,35.60
2022-12-17T12:03:00.113Z,37.70
2022-12-17T12:06:00.927Z,33.90
2022-12-17T12:08:54.439Z,32.40
2022-12-17T12:11:54.383Z,35.30
2022-12-17T12:15:04.175Z,32.10
2022-12-17T12:18:02.388Z,30.70
2022-12-17T12:21:11.223Z,33.50
2022-12-17T12:24:13.233Z,37.50
2022-12-17T12:27:11.337Z,50.50
2022-12-17T12:30:08.958Z,40.50
2022-12-17T12:33:12.549Z,59.40
2022-12-17T12:36:03.131Z,53.80
2022-12-17T12:38:58.229Z,39.40
2022-12-17T12:42:02.296Z,36.50
2022-12-17T12:44:58.310Z,33.60
2022-12-17T12:47:56.300Z,37.50
2022-12-17T12:50:58.646Z,37.40
2022-12-17T12:53:49.137Z,37.10
2022-12-17T12:56:52.229Z,39.80
2022-12-17T12:59:47.656Z,37.50
2022-12-17T13:02:50.818Z,60.40
2022-12-17T13:05:35.536Z,71.30
2022-12-17T13:08:23.652Z,63.70
2022-12-17T13:11:00.034Z,81.70
2022-12-17T13:13:38.567Z,42.90
2022-12-17T13:16:33.237Z,43.90
2022-12-17T13:19:19.677Z,52.00
2022-12-17T13:21:51.812Z,56.10
2022-12-17T13:24:30.396Z,31.10
2022-12-17T13:27:02.670Z,34.00
2022-12-17T13:29:38.959Z,32.80
2022-12-17T13:32:21.317Z,28.80
2022-12-17T13:35:10.328Z,31.10
2022-12-17T13:37:58.997Z,31.30
2022-12-17T13:40:43.788Z,32.50
2022-12-17T13:43:25.936Z,33.90
2022-12-17T13:46:00.856Z,60.80
2022-12-17T13:48:33.091Z,113.90
2022-12-17T13:51:06.891Z,38.30
2022-12-17T13:53:41.338Z,34.80
2022-12-17T13:56:13.638Z,34.30
2022-12-17T13:58:49.209Z,34.90
2022-12-17T14:01:23.802Z,65.60
2022-12-17T14:04:08.166Z,72.90
2022-12-17T14:06:41.739Z,50.00
2022-12-17T14:09:20.845Z,45.10
2022-12-17T14:12:13.016Z,31.80
2022-12-17T14:14:48.408Z,34.30
2022-12-17T14:17:23.652Z,42.90
2022-12-17T14:20:15.322Z,38.40
2022-12-17T14:23:33.226Z,40.30
2022-12-17T14:26:51.193Z,39.80
2022-12-17T14:29:52.938Z,95.30
2022-12-17T14:33:28.122Z,60.70
2022-12-17T14:47:22.613Z,56.20
2022-12-17T14:50:02.394Z,95.10
2022-12-17T14:52:40.668Z,102.00
2022-12-17T14:55:31.931Z,94.00
2022-12-17T14:58:21.060Z,53.60
2022-12-17T15:00:57.071Z,50.10
2022-12-17T15:03:32.268Z,38.70
2022-12-17T15:06:07.558Z,40.00
2022-12-17T15:08:45.258Z,36.20
2022-12-17T15:11:20.167Z,34.50
2022-12-17T15:13:56.362Z,35.10
2022-12-17T15:16:28.919Z,32.40
2022-12-17T15:19:01.579Z,34.80
2022-12-17T15:21:36.613Z,37.50
2022-12-17T15:24:13.082Z,33.20
2022-12-17T15:26:45.209Z,34.30
2022-12-17T15:29:17.559Z,30.20
2022-12-17T15:31:49.780Z,40.90
2022-12-17T15:34:21.984Z,38.00
2022-12-17T15:36:56.703Z,33.30
2022-12-17T15:39:28.925Z,43.60
2022-12-17T15:42:18.916Z,65.30
2022-12-17T15:44:51.140Z,108.00
2022-12-17T15:47:23.488Z,110.40
2022-12-17T15:49:55.704Z,82.90
2022-12-17T15:52:28.629Z,107.30
2022-12-17T15:55:00.751Z,121.90
2022-12-17T15:57:32.985Z,158.60
2022-12-17T16:00:05.769Z,209.50
2022-12-17T16:02:38.326Z,172.10
2022-12-17T16:05:12.611Z,147.90
2022-12-17T16:07:44.774Z,149.60
2022-12-17T16:10:17.209Z,164.70
2022-12-17T16:12:49.341Z,161.90
2022-12-17T16:15:21.513Z,135.20
2022-12-17T16:17:53.712Z,102.50
2022-12-17T16:20:26.999Z,108.10
2022-12-17T16:22:59.239Z,96.80
2022-12-17T16:25:33.703Z,97.00
2022-12-17T16:28:06.239Z,117.40
2022-12-17T16:30:40.761Z,117.40
2022-12-17T16:33:15.402Z,86.90
2022-12-17T16:35:55.010Z,77.90
2022-12-17T16:38:27.807Z,90.20
2022-12-17T16:41:02.218Z,99.50
2022-12-17T16:43:40.316Z,77.40
2022-12-17T16:46:28.339Z,59.90
2022-12-17T16:49:05.170Z,64.70
2022-12-17T16:51:37.661Z,91.70
2022-12-17T16:54:17.028Z,94.40
2022-12-17T16:56:50.168Z,88.30
2022-12-17T16:59:23.503Z,96.50
2022-12-17T17:01:57.275Z,101.80
2022-12-17T17:04:30.018Z,92.00
2022-12-17T17:07:02.365Z,69.30
2022-12-17T17:09:38.356Z,98.40
2022-12-17T17:12:12.031Z,80.50
2022-12-17T17:14:44.399Z,58.10
2022-12-17T17:17:19.855Z,59.00
2022-12-17T17:20:14.850Z,51.40
2022-12-17T17:22:47.136Z,55.20
2022-12-17T17:25:50.236Z,52.40
2022-12-17T17:28:26.176Z,53.80
2022-12-17T17:34:17.029Z,58.70
2022-12-17T17:37:07.778Z,56.00
2022-12-17T17:39:54.803Z,57.60
2022-12-17T17:42:27.251Z,63.20
2022-12-17T17:45:19.740Z,70.00
2022-12-17T17:48:15.076Z,74.70
2022-12-17T17:50:57.554Z,73.90
2022-12-17T17:53:30.387Z,69.80
2022-12-17T17:56:14.804Z,67.80
2022-12-17T17:58:49.670Z,68.30
2022-12-17T18:01:24.712Z,71.60
2022-12-17T18:04:02.031Z,76.70
2022-12-17T18:06:37.257Z,74.50
2022-12-17T18:09:10.964Z,73.80
2022-12-17T18:11:46.266Z,71.10
2022-12-17T18:14:18.389Z,78.90
2022-12-17T18:16:51.845Z,83.00
2022-12-17T18:19:25.010Z,83.40
2022-12-17T18:21:59.744Z,75.20
2022-12-17T18:24:31.957Z,73.80
2022-12-17T18:27:04.144Z,74.90
2022-12-17T18:29:36.548Z,78.70
2022-12-17T18:32:09.425Z,81.60
2022-12-17T18:34:41.602Z,79.00
2022-12-17T18:37:16.068Z,78.20
2022-12-17T18:39:49.664Z,75.00
2022-12-17T18:42:42.506Z,73.70
2022-12-17T18:45:16.239Z,78.10
2022-12-17T18:47:49.077Z,79.90
2022-12-17T18:50:21.648Z,81.60
2022-12-17T18:52:54.047Z,77.80
2022-12-17T18:55:27.870Z,79.90
2022-12-17T18:58:01.755Z,70.10
2022-12-17T19:00:34.038Z,71.90
2022-12-17T19:03:06.859Z,73.60
2022-12-17T19:05:47.253Z,71.10
2022-12-17T19:08:21.916Z,73.80
2022-12-17T19:10:54.150Z,73.40
2022-12-17T19:13:26.348Z,72.00
2022-12-17T19:16:07.642Z,70.20
2022-12-17T19:18:41.042Z,68.10
2022-12-17T19:21:16.097Z,68.00
2022-12-17T19:23:48.695Z,69.00
2022-12-17T19:26:23.131Z,68.10
2022-12-17T19:28:57.300Z,67.40
2022-12-17T19:31:34.001Z,67.50
2022-12-17T19:34:08.649Z,64.50
2022-12-17T19:36:42.246Z,66.00
2022-12-17T19:39:17.522Z,66.30
2022-12-17T19:41:52.601Z,67.50
2022-12-17T19:44:25.732Z,62.20
2022-12-17T19:46:58.319Z,65.90
2022-12-17T19:49:30.546Z,62.10
2022-12-17T19:52:02.708Z,62.50
2022-12-17T19:54:35.672Z,58.40
2022-12-17T19:57:10.214Z,59.50
2022-12-17T19:59:42.582Z,58.70
2022-12-17T20:02:17.435Z,60.30
2022-12-17T20:04:51.165Z,56.30
2022-12-17T20:07:23.374Z,57.70
2022-12-17T20:09:55.613Z,58.40
2022-12-17T20:12:30.163Z,58.20
2022-12-17T20:15:02.452Z,60.20
2022-12-17T20:17:34.703Z,60.40
2022-12-17T20:20:13.690Z,54.90
2022-12-17T20:22:46.015Z,57.90
2022-12-17T20:25:18.324Z,61.40
2022-12-17T20:27:52.339Z,59.10
2022-12-17T20:30:25.068Z,61.30
2022-12-17T20:32:57.332Z,57.70
2022-12-17T20:35:29.653Z,59.60
2022-12-17T20:38:01.789Z,56.10
2022-12-17T20:40:34.546Z,59.10
2022-12-17T20:43:06.676Z,55.90
2022-12-17T20:45:39.675Z,55.40
2022-12-17T20:48:12.018Z,52.50
2022-12-17T20:50:45.584Z,56.50
2022-12-17T20:53:19.720Z,54.10
2022-12-17T20:56:02.594Z,57.20
2022-12-17T20:58:34.932Z,57.60
2022-12-17T21:01:09.799Z,55.60
2022-12-17T21:03:42.852Z,53.10
2022-12-17T21:06:18.031Z,57.60
2022-12-17T21:08:54.836Z,53.00
2022-12-17T21:11:29.035Z,50.50
2022-12-17T21:14:05.001Z,52.90
2022-12-17T21:16:41.016Z,51.20
2022-12-17T21:19:16.975Z,49.90
2022-12-17T21:21:49.462Z,48.40
2022-12-17T21:24:22.047Z,49.10
2022-12-17T21:26:54.678Z,46.60
2022-12-17T21:29:29.803Z,44.60
2022-12-17T21:32:03.155Z,49.80
2022-12-17T21:34:35.736Z,45.60
2022-12-17T21:37:11.324Z,45.60
2022-12-17T21:39:43.922Z,53.20
2022-12-17T21:42:34.219Z,51.50
2022-12-17T21:45:07.759Z,48.30
2022-12-17T21:47:40.161Z,49.00
2022-12-17T21:50:15.064Z,47.30
2022-12-17T21:52:48.036Z,47.90
2022-12-17T21:55:20.351Z,50.70
2022-12-17T21:57:56.571Z,51.10
2022-12-17T22:00:29.049Z,56.20
2022-12-17T22:03:01.770Z,57.30
2022-12-17T22:05:36.918Z,56.00
2022-12-17T22:08:11.795Z,60.20
2022-12-17T22:10:46.746Z,62.90
2022-12-17T22:13:39.410Z,66.40
2022-12-17T22:16:12.618Z,69.50
2022-12-17T22:18:44.929Z,66.30
2022-12-17T22:21:17.805Z,64.60
2022-12-17T22:23:51.300Z,68.00
2022-12-17T22:26:24.268Z,65.20
2022-12-17T22:28:56.453Z,67.40
2022-12-17T22:32:01.423Z,68.20
2022-12-17T22:35:25.009Z,72.70
2022-12-17T22:40:51.062Z,70.40
2022-12-17T22:44:29.104Z,70.40
2022-12-17T22:44:43.580Z,71.30
2022-12-17T22:46:25.140Z,68.60
2022-12-17T22:48:58.106Z,65.60
2022-12-17T22:51:34.619Z,72.00
2022-12-17T22:54:14.444Z,69.80
2022-12-17T22:57:04.903Z,71.10
2022-12-17T22:59:39.476Z,67.10
2022-12-17T23:02:12.415Z,65.10
2022-12-17T23:04:45.145Z,67.80
2022-12-17T23:07:18.096Z,64.20
2022-12-17T23:09:50.411Z,63.80
2022-12-17T23:12:42.577Z,61.00
2022-12-17T23:15:18.033Z,64.70
2022-12-17T23:17:50.682Z,57.70
2022-12-17T23:20:23.474Z,59.60
2022-12-17T23:22:56.217Z,62.00
2022-12-17T23:25:29.465Z,59.60
2022-12-17T23:28:01.816Z,60.30
2022-12-17T23:30:34.692Z,58.40
2022-12-17T23:33:26.222Z,58.60
2022-12-17T23:36:34.977Z,56.60
2022-12-17T23:39:34.729Z,56.30
2022-12-17T23:42:07.109Z,56.60
2022-12-17T23:44:39.247Z,57.60
2022-12-17T23:47:11.426Z,58.80
2022-12-17T23:49:43.550Z,61.80
2022-12-17T23:52:15.805Z,56.30
2022-12-17T23:54:50.975Z,59.00
2022-12-17T23:57:23.481Z,59.90
2022-12-17T23:59:55.621Z,60.30
